Nearby METAR Reports

 

KJNX - Smithfield Johns, North Carolina, USA
Distance from station: E 11mi, 17km
Updated: Wed, 16-Oct-2013 6:55pm EDT
Overcast
Overcast
 Wind from calm
Wind: Calm
Temperature: 68°F , 20°C
Dew Point: 63°F , 17°C
Humidity: 83%
Barometer: 29.97 inHg , 1014.9 hPa
Clouds: Overcast
Visibility: 10 miles , 16 km
Cloud details: Overcast 3300 ft
2013/10/16 22:55 KJNX 162255Z AUTO 00000KT 10SM OVC033 20/17 A2997 RMK AO2
KHRJ - Erwin/Harnett Co, North Carolina, USA
Distance from station: SW 14mi, 22km
Updated: Wed, 16-Oct-2013 6:55pm EDT
Partly cloudy
Partly cloudy
 Wind from calm
Wind: Calm
Temperature: 68°F , 20°C
Dew Point: 63°F , 17°C
Humidity: 83%
Barometer: 29.98 inHg , 1015.2 hPa
Clouds: Partly cloudy
Visibility: 10 miles , 16 km
Cloud details: Partly cloudy 3100 ft
2013/10/16 22:55 KHRJ 162255Z AUTO 00000KT 10SM SCT031 20/17 A2998 RMK AO2 T01960166
 
KRDU - Raleigh/Durham, North Carolina, USA
Distance from station: NNW 26mi, 42km
Updated: Wed, 16-Oct-2013 6:51pm EDT
Partly cloudy
Partly cloudy
 Wind from calm
Wind: Calm
Temperature: 64°F , 18°C
Dew Point: 61°F , 16°C
Humidity: 88%
Barometer: 29.98 inHg , 1015.2 hPa
Clouds: Partly cloudy
Visibility: 10 miles , 16 km
Cloud details: Few Clouds 3500 ft
Partly cloudy 11000 ft
Partly cloudy 20000 ft
2013/10/16 22:51 KRDU 162251Z 00000KT 10SM FEW035 SCT110 SCT200 18/16 A2998 RMK AO2 SLP148 T01780156
KTTA - Sanford, North Carolina, USA
Distance from station: W 30mi, 48km
Updated: Wed, 16-Oct-2013 7:15pm EDT
Clear
Clear
 Wind from calm
Wind: Calm
Temperature: 59°F , 15°C
Dew Point: 57°F , 14°C
Humidity: 94%
Barometer: 29.99 inHg , 1015.6 hPa
Clouds: Clear
Visibility: 10 miles , 16 km
2013/10/16 23:15 KTTA 162315Z AUTO 00000KT 10SM CLR 15/14 A2999 RMK AO2 T01530141
 
KGWW - Goldsboro/Wayne, North Carolina, USA
Distance from station: E 34mi, 55km
Updated: Wed, 16-Oct-2013 7:15pm EDT
Overcast
Overcast
 Wind from calm
Wind: Calm
Temperature: 68°F , 20°C
Dew Point: 64°F , 18°C
Humidity: 88%
Barometer: 29.98 inHg , 1015.2 hPa
Clouds: Overcast
Visibility: 10 miles , 16 km
Cloud details: Overcast 4100 ft
2013/10/16 23:15 KGWW 162315Z AUTO 00000KT 10SM OVC041 20/18 A2998 RMK AO2 T01970180
KFBG - Fort Bragg/Simmo, North Carolina, USA
Distance from station: SSW 35mi, 56km
Updated: Wed, 16-Oct-2013 6:58pm EDT
Few Clouds
Few Clouds
 Wind from SW
Wind: SW 2 mph , 4 km/h
Temperature: 66°F , 19°C
Dew Point: 64°F , 18°C
Humidity: 94%
Barometer: 29.98 inHg , 1015.2 hPa
Clouds: Few Clouds
Visibility: 10 miles , 16 km
Cloud details: Few Clouds 16000 ft
2013/10/16 22:58 KFBG 162258Z 22002KT 10SM FEW160 19/18 A2998 RMK AO2A SLP154 T01930179 WND DATA ESTMD
 
KPOB - Pope Afb, North Carolina, USA
Distance from station: SW 36mi, 57km
Updated: Wed, 16-Oct-2013 6:58pm EDT
Mostly cloudy
Mostly cloudy
 Wind from calm
Wind: Calm
Temperature: 66°F , 19°C
Dew Point: 61°F , 16°C
Humidity: 83%
Barometer: 29.98 inHg , 1015.2 hPa
Clouds: Mostly cloudy
Visibility: 10 miles , 16 km
Cloud details: Mostly cloudy 16000 ft
2013/10/16 22:58 KPOB 162258Z AUTO 00000KT 10SM BKN160 19/16 A2998 RMK AO2 SLP154 T01870163
KLHZ - Louisburg/Frankl, North Carolina, USA
Distance from station: NNE 36mi, 58km
Updated: Wed, 16-Oct-2013 6:55pm EDT
Overcast
Overcast
 Wind from calm
Wind: Calm
Temperature: 70°F , 21°C
Dew Point: 64°F , 18°C
Humidity: 83%
Barometer: 29.98 inHg , 1015.2 hPa
Clouds: Overcast
Visibility: 10 miles , 16 km
Cloud details: Overcast 3600 ft
2013/10/16 22:55 KLHZ 162255Z AUTO 00000KT 10SM OVC036 21/18 A2998 RMK AO2
 
KGSB - Goldsboro/S. J., North Carolina, USA
Distance from station: ESE 37mi, 60km
Updated: Wed, 16-Oct-2013 6:58pm EDT
Overcast
Overcast
 Wind from varies
Wind: varies 3 mph , 6 km/h
Temperature: 68°F , 20°C
Dew Point: 64°F , 18°C
Humidity: 88%
Barometer: 29.96 inHg , 1014.6 hPa
Clouds: Overcast
Visibility: 10 miles , 16 km
Cloud details: Overcast 4100 ft
2013/10/16 22:58 KGSB 162258Z AUTO VRB03KT 10SM OVC041 20/18 A2996 RMK AO2 RAB2226E2233 SLP148 P0000 T02040180 $
KIGX - Chapel Hill, North Carolina, USA
Distance from station: NW 39mi, 63km
Updated: Wed, 16-Oct-2013 6:56pm EDT
Clear
Clear
 Wind from calm
Wind: Calm
Temperature: 64°F , 18°C
Dew Point: 61°F , 16°C
Humidity: 88%
Barometer: 29.99 inHg , 1015.6 hPa
Clouds: Clear
Visibility: 10 miles , 16 km
2013/10/16 22:56 KIGX 162256Z AUTO 00000KT 10SM CLR 18/16 A2999 RMK AO2 SLP149 T01780161
 
KCTZ - Clinton, North Carolina, USA
Distance from station: SSE 40mi, 64km
Updated: Wed, 16-Oct-2013 6:55pm EDT
Overcast
Overcast
 Wind from calm
Wind: Calm
Temperature: 68°F , 20°C
Dew Point: 64°F , 18°C
Humidity: 88%
Barometer: 29.99 inHg , 1015.6 hPa
Clouds: Overcast
Visibility: 10 miles , 16 km
Cloud details: Overcast 3300 ft
2013/10/16 22:55 KCTZ 162255Z AUTO 00000KT 10SM OVC033 20/18 A2999 RMK AO2 T02040175
KFAY - Fayetteville, North Carolina, USA
Distance from station: SSW 42mi, 67km
Updated: Wed, 16-Oct-2013 7:11pm EDT
Partly cloudy
Partly cloudy
 Wind from calm
Wind: Calm
Temperature: 66°F , 19°C
Dew Point: 63°F , 17°C
Humidity: 88%
Barometer: 29.98 inHg , 1015.2 hPa
Clouds: Partly cloudy
Visibility: 10 miles , 16 km
Cloud details: Partly cloudy 2600 ft
2013/10/16 23:11 KFAY 162311Z AUTO 00000KT 10SM SCT026 19/17 A2998 RMK AO2
 
KRWI - Rocky Mount, North Carolina, USA
Distance from station: ENE 44mi, 70km
Updated: Wed, 16-Oct-2013 6:53pm EDT
Overcast
Overcast
 Wind from calm
Wind: Calm
Temperature: 66°F , 19°C
Dew Point: 63°F , 17°C
Humidity: 88%
Barometer: 29.98 inHg , 1015.2 hPa
Clouds: Overcast
Visibility: 10 miles , 16 km
Cloud details: Overcast 4100 ft
2013/10/16 22:53 KRWI 162253Z AUTO 00000KT 10SM OVC041 19/17 A2998 RMK AO2 SLP151 T01890172
KDPL - Kenansville/Dupl, North Carolina, USA
Distance from station: SE 50mi, 81km
Updated: Wed, 16-Oct-2013 6:55pm EDT
Overcast
Overcast
 Wind from calm
Wind: Calm
Temperature: 66°F , 19°C
Dew Point: 64°F , 18°C
Humidity: 94%
Barometer: 29.99 inHg , 1015.6 hPa
Clouds: Overcast
Visibility: 10 miles , 16 km
Cloud details: Overcast 3600 ft
2013/10/16 22:55 KDPL 162255Z AUTO 00000KT 10SM OVC036 19/18 A2999 RMK AO2 T01930177